Time;durP1;ratioP1;P1;durP2;ratioP2;P2;SDS_P1;SDS_P2;PMS_P1;PMS_P2;Temp;Humidity;BMP_temperature;BMP_pressure;BME280_temperature;BME280_humidity;BME280_pressure;Samples;Min_cycle;Max_cycle;Signal;HPM_P1;HPM_P2
2023/05/19 00:01:27;;;;;;;6.22;2.75;;;16.90;69.60;;;;;;5033195;28;20030;-82
2023/05/19 00:03:56;;;;;;;10.65;3.95;;;16.90;69.70;;;;;;5033055;28;20049;-81
2023/05/19 00:06:28;;;;;;;6.32;2.65;;;16.90;69.80;;;;;;5032803;28;20477;-81
2023/05/19 00:09:03;;;;;;;6.82;2.65;;;16.90;69.70;;;;;;5032949;28;20056;-82
2023/05/19 00:11:29;;;;;;;3.65;2.40;;;16.90;69.20;;;;;;5032947;28;20124;-81
2023/05/19 00:13:57;;;;;;;4.60;2.80;;;16.90;69.20;;;;;;5032984;28;20026;-81
2023/05/19 00:16:25;;;;;;;5.45;2.95;;;16.90;69.00;;;;;;5032926;28;20045;-81
2023/05/19 00:18:52;;;;;;;3.47;2.67;;;16.90;68.90;;;;;;5032871;28;20044;-81
2023/05/19 00:21:18;;;;;;;6.45;2.67;;;16.90;69.00;;;;;;5015223;28;20029;-80
2023/05/19 00:23:44;;;;;;;3.38;2.55;;;16.80;69.50;;;;;;5014825;28;20397;-80
2023/05/19 00:26:10;;;;;;;5.20;2.72;;;16.90;69.40;;;;;;5032798;28;20104;-81
2023/05/19 00:28:35;;;;;;;5.28;2.50;;;16.90;69.20;;;;;;5032781;28;20029;-80
2023/05/19 00:31:03;;;;;;;4.50;2.58;;;16.90;69.40;;;;;;5032813;28;20022;-82
2023/05/19 00:33:29;;;;;;;4.70;2.80;;;16.90;69.80;;;;;;5032533;28;20057;-81
2023/05/19 00:35:55;;;;;;;8.43;2.47;;;16.90;69.80;;;;;;5032715;28;20033;-82
2023/05/19 00:38:21;;;;;;;7.30;2.42;;;16.80;69.80;;;;;;5032603;28;20139;-82
2023/05/19 00:40:46;;;;;;;3.60;2.75;;;16.80;70.10;;;;;;5032599;28;20017;-81
2023/05/19 00:43:12;;;;;;;3.97;2.55;;;16.70;70.40;;;;;;5032489;28;20029;-81
2023/05/19 00:45:38;;;;;;;6.07;2.60;;;16.70;70.50;;;;;;5032518;28;20389;-80
2023/05/19 00:48:04;;;;;;;4.30;2.40;;;16.70;70.60;;;;;;5032529;28;20084;-80
2023/05/19 00:50:30;;;;;;;5.60;3.00;;;16.70;70.90;;;;;;5032431;28;20361;-80
2023/05/19 00:52:56;;;;;;;6.63;2.78;;;16.70;70.90;;;;;;5032551;28;20025;-80
2023/05/19 00:55:26;;;;;;;3.78;2.58;;;16.70;70.10;;;;;;5032349;28;20144;-80
2023/05/19 00:57:55;;;;;;;4.40;2.53;;;16.70;70.30;;;;;;5031131;28;20129;-80
2023/05/19 01:00:21;;;;;;;5.15;2.58;;;16.70;70.60;;;;;;5029550;28;20068;-80
2023/05/19 01:02:49;;;;;;;3.42;2.60;;;16.70;70.80;;;;;;5029425;28;20030;-80
2023/05/19 01:05:15;;;;;;;6.22;3.05;;;16.70;71.30;;;;;;5031187;28;20026;-78
2023/05/19 01:07:41;;;;;;;4.53;2.85;;;16.70;71.40;;;;;;5032424;28;20025;-79
2023/05/19 01:10:08;;;;;;;5.28;2.67;;;16.70;71.90;;;;;;5033637;28;20415;-79
2023/05/19 01:12:34;;;;;;;4.43;2.97;;;16.70;72.10;;;;;;5035901;28;20492;-79
2023/05/19 01:15:01;;;;;;;7.80;3.08;;;16.60;72.10;;;;;;5035628;28;20121;-79
2023/05/19 01:17:39;;;;;;;4.85;3.03;;;16.60;72.40;;;;;;5035702;28;20032;-79
2023/05/19 01:20:20;;;;;;;5.57;2.78;;;16.60;72.70;;;;;;5035980;28;20079;-79
2023/05/19 01:23:04;;;;;;;7.03;2.90;;;16.60;72.90;;;;;;5036112;28;20105;-80
2023/05/19 01:25:41;;;;;;;4.68;2.88;;;16.60;73.20;;;;;;5035955;28;20040;-79
2023/05/19 01:28:51;;;;;;;6.43;3.03;;;16.50;73.40;;;;;;5035449;28;20021;-79
2023/05/19 01:31:22;;;;;;;6.15;3.10;;;16.50;73.40;;;;;;4982978;28;20085;-79
2023/05/19 01:33:50;;;;;;;8.45;2.97;;;16.50;73.50;;;;;;5035768;28;20052;-79
2023/05/19 01:36:18;;;;;;;5.30;2.70;;;16.50;73.70;;;;;;5035647;28;20034;-79
2023/05/19 01:38:46;;;;;;;4.07;2.88;;;16.50;73.70;;;;;;5035776;28;20469;-80
2023/05/19 01:41:14;;;;;;;4.32;2.70;;;16.40;73.40;;;;;;5035630;28;20485;-79
2023/05/19 01:43:40;;;;;;;4.05;2.80;;;16.40;73.60;;;;;;5035625;28;20021;-79
2023/05/19 01:46:07;;;;;;;5.80;2.92;;;16.40;73.80;;;;;;5035429;28;20029;-79
2023/05/19 01:48:33;;;;;;;10.18;3.22;;;16.30;74.40;;;;;;5035284;28;20033;-79
2023/05/19 01:50:59;;;;;;;5.03;2.95;;;16.30;74.60;;;;;;5017592;28;20029;-81
2023/05/19 01:53:25;;;;;;;4.55;2.78;;;16.30;74.90;;;;;;5035120;28;20028;-80
2023/05/19 01:55:53;;;;;;;4.47;2.72;;;16.30;74.90;;;;;;5035538;28;20113;-79
2023/05/19 01:58:30;;;;;;;4.32;2.78;;;16.30;74.80;;;;;;5035264;28;20025;-79
2023/05/19 02:01:06;;;;;;;7.00;2.85;;;16.20;74.70;;;;;;5035461;28;20462;-77
2023/05/19 02:03:45;;;;;;;4.40;2.70;;;16.20;74.80;;;;;;5035285;28;20458;-78
2023/05/19 02:06:26;;;;;;;3.45;2.55;;;16.20;74.20;;;;;;5035143;28;20028;-81
2023/05/19 02:08:55;;;;;;;4.60;2.05;;;16.20;73.50;;;;;;5035208;28;20026;-81
2023/05/19 02:11:36;;;;;;;5.28;2.28;;;16.20;73.30;;;;;;5034961;28;20389;-79
2023/05/19 02:14:13;;;;;;;3.17;2.10;;;16.20;73.00;;;;;;5035123;28;20116;-82
2023/05/19 02:16:43;;;;;;;5.70;2.05;;;16.20;72.60;;;;;;5034940;28;20428;-82
2023/05/19 02:19:20;;;;;;;4.32;1.95;;;16.30;72.60;;;;;;5034749;28;20072;-82
2023/05/19 02:21:46;;;;;;;3.90;2.08;;;16.30;72.40;;;;;;5033795;28;20029;-82
2023/05/19 02:24:11;;;;;;;5.40;2.20;;;16.30;72.40;;;;;;5034899;28;20026;-81
2023/05/19 02:26:37;;;;;;;3.22;2.20;;;16.30;72.70;;;;;;5035077;28;20029;-83
2023/05/19 02:29:03;;;;;;;4.38;2.40;;;16.30;72.70;;;;;;5035056;28;20377;-82
2023/05/19 02:31:29;;;;;;;4.90;2.10;;;16.30;72.60;;;;;;5034651;28;20024;-82
2023/05/19 02:33:54;;;;;;;3.40;1.80;;;16.30;72.50;;;;;;5034735;28;20052;-81
2023/05/19 02:36:20;;;;;;;3.38;1.80;;;16.30;72.50;;;;;;5034657;28;20030;-82
2023/05/19 02:38:46;;;;;;;3.05;1.85;;;16.30;73.00;;;;;;5034825;28;20053;-81
2023/05/19 02:41:11;;;;;;;3.47;2.30;;;16.20;73.30;;;;;;5034574;28;20366;-81
2023/05/19 02:43:37;;;;;;;4.18;2.20;;;16.20;73.70;;;;;;5034488;28;20026;-81
2023/05/19 02:46:03;;;;;;;4.60;2.80;;;16.20;74.00;;;;;;5034554;28;20026;-80
2023/05/19 02:48:29;;;;;;;4.65;2.70;;;16.20;74.60;;;;;;5034479;28;20026;-81
2023/05/19 02:50:54;;;;;;;3.78;1.88;;;16.10;75.00;;;;;;5034463;28;20029;-81
2023/05/19 02:53:20;;;;;;;4.93;2.20;;;16.20;75.10;;;;;;5034738;28;20022;-82
2023/05/19 02:55:46;;;;;;;4.50;2.65;;;16.10;75.40;;;;;;5016501;28;20057;-80
2023/05/19 02:58:11;;;;;;;5.68;2.42;;;16.10;75.60;;;;;;5034156;28;20053;-81
2023/05/19 03:00:37;;;;;;;4.70;2.47;;;16.10;76.00;;;;;;5034319;28;20026;-81
2023/05/19 03:03:03;;;;;;;5.10;2.70;;;16.10;75.80;;;;;;5034113;28;20023;-81
2023/05/19 03:05:29;;;;;;;4.43;2.17;;;16.10;76.20;;;;;;5034031;28;20064;-81
2023/05/19 03:07:55;;;;;;;4.03;2.42;;;16.00;76.50;;;;;;5034229;28;20025;-81
2023/05/19 03:10:21;;;;;;;4.55;2.67;;;16.00;76.40;;;;;;5034051;28;20033;-82
2023/05/19 03:12:47;;;;;;;5.65;2.70;;;16.00;76.70;;;;;;5034157;28;20524;-80
2023/05/19 03:15:13;;;;;;;3.60;2.47;;;16.00;77.00;;;;;;5033957;28;20113;-80
2023/05/19 03:17:39;;;;;;;4.13;2.70;;;15.90;77.10;;;;;;5033747;28;20151;-81
2023/05/19 03:20:06;;;;;;;3.95;2.70;;;15.90;76.90;;;;;;5033839;28;20052;-81
2023/05/19 03:22:32;;;;;;;6.15;3.25;;;15.90;76.90;;;;;;5034002;28;20022;-83
2023/05/19 03:24:58;;;;;;;4.95;2.72;;;15.90;77.10;;;;;;5034290;28;20028;-82
2023/05/19 03:27:23;;;;;;;4.55;2.60;;;15.80;77.90;;;;;;5033888;28;20021;-82
2023/05/19 03:29:49;;;;;;;5.25;2.80;;;15.80;78.20;;;;;;5033850;28;20096;-81
2023/05/19 03:32:15;;;;;;;6.90;3.25;;;15.70;78.40;;;;;;5033674;28;20025;-82
2023/05/19 03:34:41;;;;;;;4.13;2.83;;;15.80;78.50;;;;;;4996361;28;20152;-82
2023/05/19 03:37:07;;;;;;;4.65;2.50;;;15.70;78.50;;;;;;5013949;28;20389;-81
2023/05/19 03:39:32;;;;;;;3.85;2.65;;;15.70;78.20;;;;;;5014009;28;20077;-81
2023/05/19 03:41:58;;;;;;;3.95;2.97;;;15.70;78.10;;;;;;5014110;28;20033;-82
2023/05/19 03:44:24;;;;;;;3.30;2.70;;;15.60;78.60;;;;;;5014491;28;20026;-81
2023/05/19 03:46:49;;;;;;;3.70;2.63;;;15.70;78.70;;;;;;5024334;28;20030;-82
2023/05/19 03:49:15;;;;;;;4.28;2.50;;;15.60;78.50;;;;;;5022652;28;20060;-79
2023/05/19 03:51:43;;;;;;;2.85;2.10;;;15.60;78.10;;;;;;5013511;28;20176;-79
2023/05/19 03:54:08;;;;;;;4.40;2.30;;;15.60;78.20;;;;;;5013716;28;20022;-79
2023/05/19 03:56:38;;;;;;;4.30;2.50;;;15.60;77.80;;;;;;5013310;28;20044;-78
2023/05/19 03:59:07;;;;;;;6.15;2.63;;;15.60;77.70;;;;;;5013364;28;20117;-79
2023/05/19 04:01:33;;;;;;;3.55;2.53;;;15.60;77.50;;;;;;5013136;28;20386;-77
2023/05/19 04:03:58;;;;;;;3.47;2.35;;;15.70;77.50;;;;;;5013185;28;20026;-78
2023/05/19 04:06:24;;;;;;;3.58;2.58;;;15.60;77.30;;;;;;5013189;28;20033;-78
2023/05/19 04:08:50;;;;;;;4.40;2.53;;;15.70;77.80;;;;;;5013330;28;20025;-79
2023/05/19 04:11:16;;;;;;;4.70;2.50;;;15.70;77.40;;;;;;5013209;28;20034;-79
2023/05/19 04:13:41;;;;;;;4.43;2.40;;;15.70;77.30;;;;;;5013357;28;20037;-79
2023/05/19 04:16:07;;;;;;;3.83;2.47;;;15.70;77.40;;;;;;5013293;28;20487;-79
2023/05/19 04:18:33;;;;;;;3.67;2.40;;;15.80;77.50;;;;;;5013027;28;20482;-79
2023/05/19 04:20:58;;;;;;;3.70;2.33;;;15.80;77.70;;;;;;5013357;28;20087;-79
2023/05/19 04:23:25;;;;;;;4.60;2.17;;;15.80;78.20;;;;;;5013129;28;20077;-79
2023/05/19 04:25:51;;;;;;;3.58;2.28;;;15.80;78.10;;;;;;5013021;28;20030;-80
2023/05/19 04:28:16;;;;;;;3.70;2.20;;;15.80;78.20;;;;;;5012968;28;20075;-79
2023/05/19 04:30:45;;;;;;;3.03;2.40;;;15.80;78.30;;;;;;5012892;28;20054;-78
2023/05/19 04:33:11;;;;;;;8.32;3.10;;;15.90;78.60;;;;;;5020172;28;20075;-82
2023/05/19 04:35:38;;;;;;;3.78;2.75;;;15.90;78.80;;;;;;5032519;28;20033;-80
2023/05/19 04:38:04;;;;;;;5.53;2.70;;;15.90;78.80;;;;;;5032514;28;20112;-81
2023/05/19 04:40:30;;;;;;;4.18;2.30;;;16.00;79.10;;;;;;5032561;28;20053;-79
2023/05/19 04:43:00;;;;;;;4.53;2.35;;;16.00;78.70;;;;;;5032807;28;20068;-79
2023/05/19 04:45:26;;;;;;;3.78;2.35;;;16.00;78.90;;;;;;5034565;28;20017;-78
2023/05/19 04:47:56;;;;;;;2.90;2.17;;;16.00;78.30;;;;;;5036801;28;20083;-79
2023/05/19 04:50:23;;;;;;;4.15;2.67;;;16.10;78.20;;;;;;5036505;28;20499;-78
2023/05/19 04:52:49;;;;;;;8.85;2.78;;;16.10;78.10;;;;;;5036764;28;20032;-79
2023/05/19 04:55:15;;;;;;;5.85;2.30;;;16.10;78.10;;;;;;5036482;28;20029;-79
2023/05/19 04:57:41;;;;;;;3.90;2.40;;;16.20;78.40;;;;;;5036280;28;20030;-78
2023/05/19 05:00:11;;;;;;;4.43;2.45;;;16.20;78.40;;;;;;5036491;28;20037;-78
2023/05/19 05:02:37;;;;;;;6.10;3.03;;;16.20;78.30;;;;;;5036641;28;20036;-80
2023/05/19 05:05:03;;;;;;;4.75;2.50;;;16.20;78.10;;;;;;5036302;28;20104;-80
2023/05/19 05:07:29;;;;;;;4.32;2.80;;;16.30;78.30;;;;;;5036049;28;20033;-80
2023/05/19 05:09:54;;;;;;;5.68;2.47;;;16.30;78.80;;;;;;5035969;28;20040;-80
2023/05/19 05:12:20;;;;;;;4.55;2.70;;;16.40;79.20;;;;;;5036059;28;20029;-79
2023/05/19 05:14:46;;;;;;;3.83;2.42;;;16.30;79.00;;;;;;5018281;28;20041;-80
2023/05/19 05:17:12;;;;;;;6.43;2.58;;;16.40;79.00;;;;;;5018303;28;20061;-80
2023/05/19 05:19:39;;;;;;;3.20;2.33;;;16.40;78.90;;;;;;5018259;28;20049;-80
2023/05/19 05:22:06;;;;;;;5.38;2.40;;;16.50;79.20;;;;;;5036085;28;20049;-80
2023/05/19 05:24:32;;;;;;;6.70;2.83;;;16.50;79.60;;;;;;5036067;28;20053;-81
2023/05/19 05:26:58;;;;;;;3.60;2.50;;;16.50;79.80;;;;;;5036025;28;20071;-81
2023/05/19 05:29:24;;;;;;;5.88;2.45;;;16.60;79.20;;;;;;5035516;28;20033;-80
2023/05/19 05:31:50;;;;;;;5.72;2.95;;;16.60;79.00;;;;;;5017946;28;20021;-80
2023/05/19 05:34:16;;;;;;;6.03;2.35;;;16.60;79.20;;;;;;5035573;28;20054;-80
2023/05/19 05:36:42;;;;;;;5.85;2.55;;;16.60;79.10;;;;;;5035772;28;20493;-79
2023/05/19 05:39:08;;;;;;;6.30;2.38;;;16.60;78.70;;;;;;5035661;28;20049;-79
2023/05/19 05:41:34;;;;;;;3.78;2.50;;;16.60;78.90;;;;;;5018697;28;20033;-79
2023/05/19 05:44:00;;;;;;;6.05;2.60;;;16.70;78.90;;;;;;5035912;28;20104;-81
2023/05/19 05:46:26;;;;;;;4.82;2.15;;;16.70;79.50;;;;;;5035439;28;20029;-79
2023/05/19 05:48:53;;;;;;;10.68;2.78;;;16.80;79.40;;;;;;5035594;28;20462;-79
2023/05/19 05:51:22;;;;;;;4.03;2.40;;;16.80;79.40;;;;;;5035487;28;20021;-80
2023/05/19 05:53:53;;;;;;;6.22;2.50;;;16.80;80.10;;;;;;5035330;28;20021;-80
2023/05/19 05:56:20;;;;;;;4.35;2.40;;;16.90;80.00;;;;;;5034857;28;20041;-79
2023/05/19 05:58:46;;;;;;;2.53;1.80;;;16.90;79.00;;;;;;5035188;28;20029;-80
2023/05/19 06:01:12;;;;;;;3.35;2.05;;;17.00;78.80;;;;;;5034928;28;20022;-81
2023/05/19 06:03:41;;;;;;;7.93;1.92;;;17.00;78.70;;;;;;5034869;28;20515;-81
2023/05/19 06:06:07;;;;;;;23.48;3.17;;;17.10;78.40;;;;;;5035057;28;20041;-80
2023/05/19 06:08:33;;;;;;;3.42;1.73;;;17.10;77.90;;;;;;5035033;28;20025;-81
2023/05/19 06:10:58;;;;;;;5.55;1.73;;;17.10;77.90;;;;;;5035051;28;20041;-79
2023/05/19 06:13:24;;;;;;;2.38;1.73;;;17.20;78.10;;;;;;5031109;28;20032;-79
2023/05/19 06:15:51;;;;;;;3.60;1.38;;;17.20;78.00;;;;;;5014420;28;20037;-80
2023/05/19 06:18:17;;;;;;;40.40;4.57;;;17.20;78.30;;;;;;5028543;28;20466;-80
2023/05/19 06:20:43;;;;;;;9.85;1.60;;;17.20;77.90;;;;;;5031924;28;20151;-79
2023/05/19 06:23:09;;;;;;;0.98;0.80;;;17.30;77.20;;;;;;5032246;28;20155;-81
2023/05/19 06:25:35;;;;;;;0.70;0.60;;;17.30;76.80;;;;;;5034264;28;20108;-78
2023/05/19 06:28:01;;;;;;;176.70;15.55;;;17.40;76.80;;;;;;5016124;28;20033;-81
2023/05/19 06:30:27;;;;;;;67.43;8.13;;;17.40;76.60;;;;;;5034022;28;20132;-80
2023/05/19 06:32:52;;;;;;;103.32;10.90;;;17.40;76.70;;;;;;5033987;28;20128;-80
2023/05/19 06:35:18;;;;;;;6.68;0.90;;;17.50;76.80;;;;;;5034395;28;20037;-78
2023/05/19 06:37:44;;;;;;;5.80;0.70;;;17.50;76.40;;;;;;5034283;28;20118;-79
2023/05/19 06:40:10;;;;;;;26.15;2.83;;;17.50;76.10;;;;;;5016075;28;20514;-80
2023/05/19 06:42:36;;;;;;;42.85;3.55;;;17.50;76.20;;;;;;5034197;28;20492;-80
2023/05/19 06:45:02;;;;;;;10.85;2.40;;;17.50;77.30;;;;;;5033885;28;20021;-80
2023/05/19 06:47:28;;;;;;;13.95;1.90;;;17.50;77.00;;;;;;5033784;28;20025;-81
2023/05/19 06:49:54;;;;;;;28.75;2.72;;;17.50;76.30;;;;;;5034236;28;20068;-79
2023/05/19 06:52:20;;;;;;;49.42;4.63;;;17.60;76.20;;;;;;5034104;28;20022;-80
2023/05/19 06:54:47;;;;;;;48.85;4.78;;;17.60;75.60;;;;;;5034200;28;20061;-81
2023/05/19 06:57:13;;;;;;;19.92;3.45;;;17.70;75.10;;;;;;5034566;28;20116;-78
2023/05/19 06:59:42;;;;;;;2.20;0.60;;;17.70;75.30;;;;;;5034494;28;20057;-83
2023/05/19 07:02:08;;;;;;;24.80;2.38;;;17.70;75.70;;;;;;5034584;28;20398;-83
2023/05/19 07:04:35;;;;;;;5.03;0.90;;;17.80;75.40;;;;;;5034462;28;20385;-83
2023/05/19 07:07:01;;;;;;;8.85;0.93;;;17.80;76.00;;;;;;5034130;28;20056;-80
2023/05/19 07:09:26;;;;;;;85.70;6.30;;;17.90;75.40;;;;;;5033879;28;20025;-82
2023/05/19 07:11:52;;;;;;;21.77;2.63;;;17.90;74.90;;;;;;5016386;28;20021;-79
2023/05/19 07:14:19;;;;;;;4.47;0.65;;;17.90;75.20;;;;;;5034217;28;20029;-79
2023/05/19 07:16:45;;;;;;;2.85;0.70;;;17.90;74.40;;;;;;5027671;28;20038;-81
2023/05/19 07:19:11;;;;;;;1.85;0.50;;;18.00;74.20;;;;;;5025084;28;20017;-79
2023/05/19 07:21:37;;;;;;;9.10;0.90;;;18.00;74.00;;;;;;5028083;28;20378;-81
2023/05/19 07:24:03;;;;;;;24.30;3.13;;;18.00;73.90;;;;;;5033683;28;20029;-81
2023/05/19 07:26:28;;;;;;;6.55;0.98;;;18.00;73.60;;;;;;5033781;28;20034;-81
2023/05/19 07:28:55;;;;;;;87.18;6.63;;;18.00;74.00;;;;;;5033767;28;20587;-80
2023/05/19 07:31:21;;;;;;;3.95;0.50;;;18.00;73.20;;;;;;5033685;28;20038;-80
2023/05/19 07:33:47;;;;;;;3.75;0.60;;;18.10;73.70;;;;;;5042085;22;20056;-79
2023/05/19 07:36:12;;;;;;;3.50;0.60;;;18.00;73.80;;;;;;5015915;28;20052;-79
2023/05/19 07:38:38;;;;;;;1.02;0.55;;;18.10;73.80;;;;;;5033674;28;20053;-80
2023/05/19 07:41:04;;;;;;;3.42;0.57;;;18.00;73.50;;;;;;5033160;28;20029;-80
2023/05/19 07:43:30;;;;;;;1.75;0.68;;;18.10;73.50;;;;;;5033352;28;20064;-79
2023/05/19 07:45:56;;;;;;;4.90;0.73;;;18.10;74.40;;;;;;5033451;28;20064;-83
2023/05/19 07:48:24;;;;;;;13.55;1.65;;;18.10;74.60;;;;;;5033574;28;20053;-79
2023/05/19 07:50:51;;;;;;;4.57;0.60;;;18.20;74.40;;;;;;5033537;28;20096;-78
2023/05/19 07:53:21;;;;;;;3.75;0.40;;;18.30;74.00;;;;;;5033437;28;20448;-76
2023/05/19 07:55:47;;;;;;;2.10;0.50;;;18.30;73.50;;;;;;5033476;28;20025;-80
2023/05/19 07:58:14;;;;;;;17.20;2.38;;;18.40;73.90;;;;;;5033348;28;20049;-81
2023/05/19 08:00:44;;;;;;;1.25;0.50;;;18.40;74.20;;;;;;5033441;28;20550;-81
2023/05/19 08:03:10;;;;;;;1.92;0.47;;;18.50;73.80;;;;;;5033625;28;20480;-82
2023/05/19 08:05:36;;;;;;;19.27;1.67;;;18.50;73.80;;;;;;5015321;28;20025;-79
2023/05/19 08:08:02;;;;;;;1.75;0.32;;;18.60;73.60;;;;;;5015551;28;20037;-81
2023/05/19 08:10:28;;;;;;;4.55;0.50;;;18.70;73.00;;;;;;5033299;28;20033;-80
2023/05/19 08:12:54;;;;;;;3.25;0.52;;;18.70;73.30;;;;;;5040420;28;20108;-81
2023/05/19 08:15:20;;;;;;;0.90;0.50;;;18.80;72.00;;;;;;5034655;28;20127;-80
2023/05/19 08:17:46;;;;;;;2.80;0.45;;;18.80;71.80;;;;;;5051092;28;20025;-79
2023/05/19 08:20:12;;;;;;;7.95;0.85;;;18.90;72.00;;;;;;5049041;28;20029;-80
2023/05/19 08:22:38;;;;;;;4.00;0.47;;;18.90;72.90;;;;;;5049225;28;20122;-80
2023/05/19 08:25:05;;;;;;;0.70;0.30;;;19.00;72.70;;;;;;5050082;28;20072;-82
2023/05/19 08:27:31;;;;;;;26.88;2.58;;;19.00;72.20;;;;;;5049913;28;20021;-82
2023/05/19 08:29:57;;;;;;;1.17;0.45;;;19.10;71.00;;;;;;5052410;28;20025;-83
2023/05/19 08:32:23;;;;;;;3.20;0.30;;;19.10;70.40;;;;;;5052535;28;20021;-80
2023/05/19 08:34:49;;;;;;;0.38;0.30;;;19.10;70.50;;;;;;5052932;28;20021;-80
2023/05/19 08:37:15;;;;;;;5.43;0.43;;;19.10;70.30;;;;;;5052829;28;20033;-80
2023/05/19 08:39:40;;;;;;;66.35;5.78;;;19.10;70.20;;;;;;5052786;28;20021;-83
2023/05/19 08:42:08;;;;;;;5.18;0.75;;;19.10;69.90;;;;;;5052068;28;20040;-80
2023/05/19 08:44:38;;;;;;;165.93;13.85;;;19.10;70.20;;;;;;5052343;28;20042;-81
2023/05/19 08:47:06;;;;;;;7.93;0.60;;;19.10;70.90;;;;;;5052545;28;20025;-79
2023/05/19 08:49:37;;;;;;;6.72;0.52;;;19.10;70.40;;;;;;5052315;28;20021;-79
2023/05/19 08:52:16;;;;;;;0.35;0.30;;;19.10;70.40;;;;;;5052352;28;20013;-80
2023/05/19 08:55:14;;;;;;;44.03;3.80;;;19.10;70.00;;;;;;5052302;28;20029;-79
2023/05/19 08:57:40;;;;;;;23.63;2.53;;;19.10;70.00;;;;;;4983373;28;20444;-79
2023/05/19 09:00:13;;;;;;;0.45;0.40;;;19.10;70.10;;;;;;5034433;28;20025;-79
2023/05/19 09:02:38;;;;;;;;;;;19.10;70.70;;;;;;5052454;28;20029;-81
2023/05/19 09:05:05;;;;;;;14.30;1.25;;;19.10;70.70;;;;;;5052157;28;19904;-79
2023/05/19 09:07:34;;;;;;;4.07;0.95;;;19.10;71.10;;;;;;5051806;28;20028;-79
2023/05/19 09:10:00;;;;;;;17.52;2.35;;;19.10;70.70;;;;;;5049694;28;20115;-77
2023/05/19 09:12:27;;;;;;;4.20;0.50;;;19.10;69.90;;;;;;5048985;28;20025;-77
2023/05/19 09:14:53;;;;;;;7.70;0.88;;;19.10;69.50;;;;;;5048685;28;20116;-77
2023/05/19 09:17:18;;;;;;;1.58;0.52;;;19.10;69.80;;;;;;5051369;28;20531;-79
2023/05/19 09:19:46;;;;;;;2.33;0.60;;;19.10;70.20;;;;;;5051686;28;20025;-77
2023/05/19 09:22:15;;;;;;;2.22;0.57;;;19.10;70.60;;;;;;5051886;28;20083;-78
2023/05/19 09:24:41;;;;;;;2.05;0.40;;;19.10;70.40;;;;;;5051489;28;20029;-76
2023/05/19 09:27:07;;;;;;;4.30;0.60;;;19.00;70.70;;;;;;5051937;28;20029;-78
2023/05/19 09:29:33;;;;;;;4.10;1.13;;;19.10;70.60;;;;;;5051641;28;20070;-78
2023/05/19 09:32:05;;;;;;;2.00;0.50;;;19.10;70.80;;;;;;5054358;28;20025;-78
2023/05/19 09:34:30;;;;;;;5.85;1.27;;;19.10;70.40;;;;;;5055598;28;20053;-77
2023/05/19 09:36:58;;;;;;;7.10;0.80;;;19.10;69.40;;;;;;5055462;28;20041;-78
2023/05/19 09:39:25;;;;;;;1.65;0.77;;;19.00;69.50;;;;;;5055202;28;20021;-78
2023/05/19 09:41:55;;;;;;;10.23;1.25;;;19.00;69.60;;;;;;5055447;28;20114;-78
2023/05/19 09:44:22;;;;;;;24.25;1.83;;;19.10;69.60;;;;;;5055104;28;20041;-78
2023/05/19 09:46:52;;;;;;;1.30;0.60;;;19.00;70.00;;;;;;5055094;28;20476;-81
2023/05/19 09:49:22;;;;;;;6.63;0.82;;;19.10;70.40;;;;;;5055250;28;20499;-79
2023/05/19 09:51:55;;;;;;;24.65;2.83;;;19.10;69.70;;;;;;5055223;28;20083;-79
2023/05/19 09:54:22;;;;;;;2.65;0.70;;;19.10;69.70;;;;;;5054940;28;20373;-79
2023/05/19 09:57:02;;;;;;;8.27;1.38;;;19.10;69.70;;;;;;5055108;28;20029;-76
2023/05/19 09:59:29;;;;;;;2.13;1.17;;;19.10;68.90;;;;;;5052539;28;20028;-77
2023/05/19 10:01:57;;;;;;;1.70;0.70;;;19.10;70.10;;;;;;5052447;28;20025;-78
2023/05/19 10:04:25;;;;;;;1.10;0.85;;;19.10;70.10;;;;;;5055160;28;20025;-78
2023/05/19 10:06:52;;;;;;;2.30;0.93;;;19.10;70.30;;;;;;5055160;28;20025;-77
2023/05/19 10:09:25;;;;;;;10.15;1.80;;;19.20;70.60;;;;;;5055161;28;20100;-80
2023/05/19 10:11:52;;;;;;;18.23;1.77;;;19.20;70.40;;;;;;5055234;28;20025;-80
2023/05/19 10:14:23;;;;;;;4.85;0.77;;;19.30;69.60;;;;;;5055422;28;20056;-78
2023/05/19 10:16:51;;;;;;;8.25;0.90;;;19.30;70.00;;;;;;5055197;28;20500;-86
2023/05/19 10:19:20;;;;;;;7.55;1.00;;;19.40;69.20;;;;;;5055244;28;20544;-82
2023/05/19 10:21:46;;;;;;;14.20;1.30;;;19.50;69.00;;;;;;5055034;28;20114;-75
2023/05/19 10:24:12;;;;;;;10.20;0.95;;;19.50;67.60;;;;;;5054948;28;20097;-78
2023/05/19 10:26:42;;;;;;;75.20;5.22;;;19.60;69.40;;;;;;5054680;28;20099;-77
2023/05/19 10:29:09;;;;;;;48.20;3.13;;;19.70;68.00;;;;;;5054928;28;20104;-76
2023/05/19 10:31:35;;;;;;;6.22;1.02;;;19.90;69.30;;;;;;5054414;28;20032;-76
2023/05/19 10:34:20;;;;;;;8.43;1.52;;;20.00;69.10;;;;;;5036468;28;20044;-77
2023/05/19 10:37:17;;;;;;;3.35;0.93;;;20.20;67.40;;;;;;5054921;28;20473;-81
2023/05/19 10:39:43;;;;;;;1.80;0.90;;;20.30;66.90;;;;;;5053474;28;20073;-78
2023/05/19 10:42:24;;;;;;;6.38;1.48;;;20.40;66.90;;;;;;5035894;28;20071;-77
2023/05/19 10:45:13;;;;;;;7.90;1.30;;;20.60;67.60;;;;;;5054629;28;20021;-77
2023/05/19 10:47:40;;;;;;;1.73;1.20;;;20.70;65.50;;;;;;5054694;28;20079;-78
2023/05/19 10:50:07;;;;;;;3.47;1.30;;;20.70;64.40;;;;;;5054506;28;20065;-78
2023/05/19 10:52:37;;;;;;;1.83;1.20;;;20.80;64.30;;;;;;5054441;28;20473;-75
2023/05/19 10:55:07;;;;;;;2.05;1.00;;;20.80;65.70;;;;;;5054335;28;20461;-77
2023/05/19 10:57:34;;;;;;;3.20;1.23;;;20.80;64.80;;;;;;5036443;28;20035;-78
2023/05/19 11:00:24;;;;;;;2.42;1.10;;;20.90;64.40;;;;;;5054007;28;20025;-79
2023/05/19 11:02:54;;;;;;;3.70;1.38;;;20.90;64.00;;;;;;5053582;28;20028;-79
2023/05/19 11:05:27;;;;;;;6.55;1.40;;;21.00;63.40;;;;;;5053905;28;20366;-81
2023/05/19 11:08:04;;;;;;;6.75;1.48;;;21.00;63.30;;;;;;5054185;28;20052;-80
2023/05/19 11:10:29;;;;;;;6.03;1.05;;;21.00;62.90;;;;;;5053943;28;20041;-80
2023/05/19 11:12:56;;;;;;;5.47;1.40;;;21.10;62.80;;;;;;5052788;28;20135;-81
2023/05/19 11:15:26;;;;;;;7.40;1.30;;;21.10;63.20;;;;;;5050468;28;20152;-78
2023/05/19 11:17:52;;;;;;;7.22;1.30;;;21.20;62.90;;;;;;5051049;28;20025;-79
2023/05/19 11:20:21;;;;;;;1.98;1.15;;;21.30;61.60;;;;;;5053442;28;20451;-79
2023/05/19 11:23:08;;;;;;;5.32;1.58;;;21.40;62.50;;;;;;5053895;28;20089;-78
2023/05/19 11:25:45;;;;;;;4.47;1.17;;;21.40;61.80;;;;;;5053873;28;20028;-78
2023/05/19 11:28:14;;;;;;;4.07;1.20;;;21.50;61.40;;;;;;5053929;28;20021;-79
2023/05/19 11:30:45;;;;;;;4.43;1.23;;;21.50;61.10;;;;;;5053973;28;20040;-78
2023/05/19 11:33:12;;;;;;;2.25;1.08;;;21.50;61.90;;;;;;5053536;28;20451;-78
2023/05/19 11:35:38;;;;;;;9.38;1.20;;;21.60;63.60;;;;;;5053549;28;20485;-78
2023/05/19 11:38:07;;;;;;;6.28;1.30;;;21.70;61.90;;;;;;5033556;28;20119;-77
2023/05/19 11:40:33;;;;;;;4.05;1.58;;;21.80;61.00;;;;;;5049951;28;20033;-78
2023/05/19 11:43:00;;;;;;;3.38;1.00;;;21.90;61.10;;;;;;5029725;28;20040;-78
2023/05/19 11:45:28;;;;;;;3.55;1.10;;;21.90;61.20;;;;;;5029121;28;20488;-78
2023/05/19 11:47:55;;;;;;;2.60;1.20;;;22.00;60.40;;;;;;5032859;28;20076;-78
2023/05/19 11:50:21;;;;;;;5.00;1.40;;;22.00;58.80;;;;;;5032477;28;20485;-78
2023/05/19 11:52:47;;;;;;;3.92;1.30;;;22.10;59.60;;;;;;5032472;28;20025;-80
2023/05/19 11:55:17;;;;;;;5.93;1.10;;;22.10;59.20;;;;;;5032201;28;20456;-79
2023/05/19 11:58:01;;;;;;;11.43;1.48;;;22.20;59.30;;;;;;5032566;28;20504;-78
2023/05/19 12:00:27;;;;;;;7.68;1.33;;;22.20;59.30;;;;;;5029931;28;20335;-79
2023/05/19 12:02:53;;;;;;;2.90;1.38;;;22.20;57.90;;;;;;5032881;28;20378;-76
2023/05/19 12:05:23;;;;;;;11.70;1.30;;;22.20;57.80;;;;;;5029284;28;20025;-79
2023/05/19 12:07:50;;;;;;;4.35;1.40;;;22.30;58.60;;;;;;5027869;28;20033;-79
2023/05/19 12:10:25;;;;;;;3.70;1.70;;;22.30;58.60;;;;;;5013525;28;20053;-79
2023/05/19 12:12:52;;;;;;;3.22;1.30;;;22.40;59.40;;;;;;5032540;28;20021;-78
2023/05/19 12:15:22;;;;;;;2.05;1.40;;;22.50;58.00;;;;;;5031661;28;20280;-78
2023/05/19 12:17:54;;;;;;;9.85;1.42;;;22.50;56.30;;;;;;5032161;28;20028;-77
2023/05/19 12:20:21;;;;;;;5.43;1.30;;;22.50;55.40;;;;;;5031027;28;20079;-76
2023/05/19 12:22:47;;;;;;;3.20;1.33;;;22.50;56.00;;;;;;5031062;28;20030;-77
2023/05/19 12:25:15;;;;;;;12.38;1.50;;;22.60;56.60;;;;;;5030885;28;20032;-76
2023/05/19 12:27:42;;;;;;;3.65;1.50;;;22.60;56.20;;;;;;5033457;28;20034;-78
2023/05/19 12:30:09;;;;;;;3.20;1.58;;;22.70;56.20;;;;;;5032089;28;20034;-77
2023/05/19 12:32:35;;;;;;;8.27;1.60;;;22.70;54.80;;;;;;5031795;28;20046;-78
2023/05/19 12:35:04;;;;;;;3.33;1.25;;;22.70;54.70;;;;;;5032396;28;20026;-79
2023/05/19 12:37:32;;;;;;;13.40;1.50;;;22.70;55.60;;;;;;5032227;28;20045;-77
2023/05/19 12:39:58;;;;;;;14.77;1.65;;;22.70;55.20;;;;;;5014155;28;20059;-78
2023/05/19 12:42:31;;;;;;;5.30;1.45;;;22.70;55.40;;;;;;5031708;28;20560;-81
2023/05/19 12:44:58;;;;;;;2.58;1.52;;;22.60;56.00;;;;;;5014493;28;20029;-77
2023/05/19 12:47:33;;;;;;;2.15;1.25;;;22.60;55.30;;;;;;5032236;28;20034;-74
2023/05/19 12:49:59;;;;;;;3.83;1.52;;;22.60;55.00;;;;;;5032168;28;20025;-75